• Join FlightAware (Why Join?)
  • Login
  • US Flag 
01:59AM EST


 

Airport Tracker/Info


-or-


 

Live Flight TrackerFlight Track Log ✈ UAL3598 ✈ 19-Jun-2014 ✈ KEWR - KBGM

Flight Track Log - Related Links

Times and Time Zones

All times are in EDT time to prevent confusion due to time zone crossing. See the UAL3598 flight status page for this flight to view local times or setup timezone preferences in your user account.

Time Position Orientation Groundspeed Altitude Reporting Facility
EDT Latitude Longitude Course Direction KTS MPH feet Rate Location/Type
10:14PM 40.7333 -74.1833 333° Northwest 173 199 2,400  Level New York TRACON
10:15PM 40.7500 -74.2333 294° West 183 211 3,900 1,380 Climbing New York TRACON
10:16PM 40.7833 -74.2833 311° West 182 209 5,200 1,260 Climbing New York TRACON
10:17PM 40.8333 -74.3333 323° Northwest 206 237 6,500 1,380 Climbing New York TRACON
10:18PM 40.8833 -74.3500 346° North 194 223 8,000 1,380 Climbing New York TRACON
10:19PM 41.0630 -74.3413 342° North  Level FlightAware Approximate
10:20PM 40.7345 -74.1841 333° Northwest  Level FlightAware Approximate
10:20PM 40.9686 -74.3903 340° North 188 216 10,500  Level New York Center
10:21PM 41.0158 -74.4119 341° North 183 211 11,600 720 Climbing New York Center
10:22PM 41.0733 -74.4400 340° North 193 222 12,000 180 Climbing New York Center
10:23PM 41.1308 -74.4650 342° North 220 253 12,000  Level New York Center
10:24PM 41.1986 -74.4964 341° North 231 266 12,000  Level New York Center
10:25PM 41.2603 -74.5219 343° North 243 280 12,000  Level New York Center
10:26PM 41.3300 -74.5533 341° North 243 280 12,000  Level New York Center
10:27PM 41.3897 -74.5817 340° North 243 280 12,000  Level New York Center
10:28PM 41.4394 -74.6508 314° West 237 273 12,000  Level New York Center
10:29PM 41.4747 -74.7194 304° West 244 281 12,000  Level New York Center
10:30PM 41.5156 -74.8047 303° West 249 287 12,000  Level New York Center
10:31PM 41.5483 -74.8761 302° West 249 287 12,000  Level New York Center
10:32PM 41.5933 -74.9622 305° West 254 292 12,000  Level New York Center
10:33PM 41.6322 -75.0394 304° West 254 292 12,000 -120 Level New York Center
10:34PM 41.6650 -75.1083 303° West 254 292 11,800 -420 Descending New York Center
10:35PM 41.7058 -75.1886 304° West 259 298 11,200 -420 Descending New York Center
10:36PM 41.7461 -75.2775 301° West 259 298 11,000 -120 Descending New York Center
10:37PM 41.7850 -75.3553 304° West 259 298 11,000 -360 Level New York Center
10:38PM 41.8214 -75.4356 301° West 259 298 10,300 -780 Descending New York Center
10:39PM 41.8558 -75.5078 303° West 259 298 9,500 -660 Descending New York Center
10:40PM 41.8981 -75.5969 302° West 259 298 9,000 -300 Descending New York Center
10:41PM 41.9344 -75.6750 302° West 259 298 9,000 -600 Level New York Center
10:42PM 41.9803 -75.7231 322° Northwest 248 285 7,800 -1,320 Descending New York Center
10:43PM 42.0442 -75.6886 22° Northeast 206 237 6,400 -1,740 Descending New York Center
10:44PM 42.0792 -75.7528 306° West 183 211 4,400 -1,200 Descending New York Center
10:45PM 42.0883 -75.8317 279° West 183 211 4,000 -300 Descending New York Center
10:46PM 42.0978 -75.8994 281° West 188 216 3,800 -420 Descending New York Center
10:47PM 42.1367 -75.9192 339° North 154 177 3,200 -660 Descending New York Center
10:48PM 42.1647 -75.9439 327° Northwest 136 157 2,500 -600 Descending New York Center
10:49PM 42.1847 -75.9594 330° Northwest 122 140 2,000 -540 Descending New York Center
10:51PM 42.2000 -75.9667 North  Level FlightAware Approximate
10:58PM 42.2084 -75.9796 North  Level Estimated